Strona główna
METAR-TAF:

METAR-TAF

Lotnisko :

New River Valley Airport

Dublin, Wirginia, Stany Zjednoczone

Szerokość geograficzna: 37-08N, Długość geograficzna: 080-41W, wysokość: 642 m

Aktualna obserwacja pogody

Raport powstał 21 minut temu, godzina 06:35 UTC
Cisza
Temperatura -2°C
Wilgotność 80%
Ciśnienie 1033 hPa
Widzialność: 16.1 km
bezchmurnie

METAR: KPSK 120635Z AUTO 00000KT 10SM CLR M02/M05 A3051 RMK AO2 T10211055

czas: 01:56 (06:56 UTC)


TAF: brakujący

Obserwacja i prognoza pogody dla ponad 4000 lotnisk (raport METAR i TAF).

Dostępne stacje oznaczono żółtymi i czerwonymi punktami na mapie.

Najedź kursorem aby zobaczyć nazwę stacji.

Kliknij aby zobaczyć obserwacje i prognozy pogody.

Aby zmienić mapę: kliknij na zielony przycisk z czarnym krzyżykiem, aby powiększyć; na zielony przycisk z myślnikiem, aby pomniejszyć; na zielone strzałki, aby przejść do map sąsiednich.


METAR-TAF: